sensor_id;sensor_type;location;lat;lon;timestamp;temperature;humidity
23471;DHT22;11908;50.806;4.424;2022-11-22T00:01:14;7.00;99.90
23471;DHT22;11908;50.806;4.424;2022-11-22T00:03:40;7.00;99.90
23471;DHT22;11908;50.806;4.424;2022-11-22T00:06:05;7.00;99.90
23471;DHT22;11908;50.806;4.424;2022-11-22T00:08:31;7.00;99.90
23471;DHT22;11908;50.806;4.424;2022-11-22T00:10:57;6.90;99.90
23471;DHT22;11908;50.806;4.424;2022-11-22T00:13:23;6.90;99.90
23471;DHT22;11908;50.806;4.424;2022-11-22T00:16:02;6.80;99.90
23471;DHT22;11908;50.806;4.424;2022-11-22T00:18:29;6.80;99.90
23471;DHT22;11908;50.806;4.424;2022-11-22T00:20:55;6.80;99.90
23471;DHT22;11908;50.806;4.424;2022-11-22T00:23:21;6.80;99.90
23471;DHT22;11908;50.806;4.424;2022-11-22T00:25:47;6.80;99.90
23471;DHT22;11908;50.806;4.424;2022-11-22T00:28:13;6.90;99.90
23471;DHT22;11908;50.806;4.424;2022-11-22T00:30:39;6.80;99.90
23471;DHT22;11908;50.806;4.424;2022-11-22T00:33:04;6.80;99.90
23471;DHT22;11908;50.806;4.424;2022-11-22T00:35:30;6.80;99.90
23471;DHT22;11908;50.806;4.424;2022-11-22T00:37:56;6.80;99.90
23471;DHT22;11908;50.806;4.424;2022-11-22T00:40:21;6.80;99.90
23471;DHT22;11908;50.806;4.424;2022-11-22T00:42:47;6.80;99.90
23471;DHT22;11908;50.806;4.424;2022-11-22T00:45:12;6.70;99.90
23471;DHT22;11908;50.806;4.424;2022-11-22T00:47:38;6.70;99.90
23471;DHT22;11908;50.806;4.424;2022-11-22T00:50:04;6.70;99.90
23471;DHT22;11908;50.806;4.424;2022-11-22T00:52:30;6.60;99.90
23471;DHT22;11908;50.806;4.424;2022-11-22T00:54:55;6.60;99.90
23471;DHT22;11908;50.806;4.424;2022-11-22T00:57:21;6.50;99.90
23471;DHT22;11908;50.806;4.424;2022-11-22T00:59:47;6.50;99.90
23471;DHT22;11908;50.806;4.424;2022-11-22T01:02:13;6.50;99.90
23471;DHT22;11908;50.806;4.424;2022-11-22T01:04:38;6.50;99.90
23471;DHT22;11908;50.806;4.424;2022-11-22T01:07:04;6.40;99.90
23471;DHT22;11908;50.806;4.424;2022-11-22T01:09:30;6.30;99.90
23471;DHT22;11908;50.806;4.424;2022-11-22T01:11:55;6.40;99.90
23471;DHT22;11908;50.806;4.424;2022-11-22T01:14:21;6.40;99.90
23471;DHT22;11908;50.806;4.424;2022-11-22T01:16:47;6.30;99.90
23471;DHT22;11908;50.806;4.424;2022-11-22T01:19:13;6.30;99.90
23471;DHT22;11908;50.806;4.424;2022-11-22T01:21:39;6.20;99.90
23471;DHT22;11908;50.806;4.424;2022-11-22T01:24:05;6.30;99.90
23471;DHT22;11908;50.806;4.424;2022-11-22T01:26:32;6.20;99.90
23471;DHT22;11908;50.806;4.424;2022-11-22T01:28:58;6.30;99.90
23471;DHT22;11908;50.806;4.424;2022-11-22T01:31:23;6.20;99.90
23471;DHT22;11908;50.806;4.424;2022-11-22T01:33:49;6.20;99.90
23471;DHT22;11908;50.806;4.424;2022-11-22T01:36:15;6.20;99.90
23471;DHT22;11908;50.806;4.424;2022-11-22T01:38:40;6.20;99.90
23471;DHT22;11908;50.806;4.424;2022-11-22T01:41:06;6.10;99.90
23471;DHT22;11908;50.806;4.424;2022-11-22T01:43:32;6.10;99.90
23471;DHT22;11908;50.806;4.424;2022-11-22T01:46:00;6.10;99.90
23471;DHT22;11908;50.806;4.424;2022-11-22T01:53:39;6.00;99.90
23471;DHT22;11908;50.806;4.424;2022-11-22T01:56:09;6.00;99.90
23471;DHT22;11908;50.806;4.424;2022-11-22T01:58:37;6.00;99.90
23471;DHT22;11908;50.806;4.424;2022-11-22T02:01:03;6.00;99.90
23471;DHT22;11908;50.806;4.424;2022-11-22T02:03:32;6.00;99.90
23471;DHT22;11908;50.806;4.424;2022-11-22T02:05:58;6.00;99.90
23471;DHT22;11908;50.806;4.424;2022-11-22T02:08:48;6.00;99.90
23471;DHT22;11908;50.806;4.424;2022-11-22T02:11:16;6.00;99.90
23471;DHT22;11908;50.806;4.424;2022-11-22T02:13:43;5.90;99.90
23471;DHT22;11908;50.806;4.424;2022-11-22T02:16:10;5.90;99.90
23471;DHT22;11908;50.806;4.424;2022-11-22T02:18:37;5.90;99.90
23471;DHT22;11908;50.806;4.424;2022-11-22T02:21:03;5.80;99.90
23471;DHT22;11908;50.806;4.424;2022-11-22T02:23:43;5.80;99.90
23471;DHT22;11908;50.806;4.424;2022-11-22T02:26:11;5.80;99.90
23471;DHT22;11908;50.806;4.424;2022-11-22T02:28:38;5.80;99.90
23471;DHT22;11908;50.806;4.424;2022-11-22T02:31:04;5.80;99.90
23471;DHT22;11908;50.806;4.424;2022-11-22T02:33:30;5.80;99.90
23471;DHT22;11908;50.806;4.424;2022-11-22T02:35:56;5.80;99.90
23471;DHT22;11908;50.806;4.424;2022-11-22T02:38:30;5.80;99.90
23471;DHT22;11908;50.806;4.424;2022-11-22T02:41:03;5.80;99.90
23471;DHT22;11908;50.806;4.424;2022-11-22T02:43:40;5.80;99.90
23471;DHT22;11908;50.806;4.424;2022-11-22T02:46:08;5.70;99.90
23471;DHT22;11908;50.806;4.424;2022-11-22T02:48:40;5.70;99.90
23471;DHT22;11908;50.806;4.424;2022-11-22T02:51:05;5.70;99.90
23471;DHT22;11908;50.806;4.424;2022-11-22T02:53:31;5.70;99.90
23471;DHT22;11908;50.806;4.424;2022-11-22T02:55:57;5.70;99.90
23471;DHT22;11908;50.806;4.424;2022-11-22T02:58:22;5.70;99.90
23471;DHT22;11908;50.806;4.424;2022-11-22T03:00:48;5.80;99.90
23471;DHT22;11908;50.806;4.424;2022-11-22T03:03:14;5.60;99.90
23471;DHT22;11908;50.806;4.424;2022-11-22T03:05:39;5.70;99.90
23471;DHT22;11908;50.806;4.424;2022-11-22T03:08:05;5.60;99.90
23471;DHT22;11908;50.806;4.424;2022-11-22T03:10:31;5.60;99.90
23471;DHT22;11908;50.806;4.424;2022-11-22T03:12:57;5.60;99.90
23471;DHT22;11908;50.806;4.424;2022-11-22T03:15:23;5.60;99.90
23471;DHT22;11908;50.806;4.424;2022-11-22T03:17:48;5.60;99.90
23471;DHT22;11908;50.806;4.424;2022-11-22T03:20:14;5.50;99.90
23471;DHT22;11908;50.806;4.424;2022-11-22T03:22:40;5.50;99.90
23471;DHT22;11908;50.806;4.424;2022-11-22T03:25:06;5.60;99.90
23471;DHT22;11908;50.806;4.424;2022-11-22T03:27:32;5.60;99.90
23471;DHT22;11908;50.806;4.424;2022-11-22T03:29:57;5.60;99.90
23471;DHT22;11908;50.806;4.424;2022-11-22T03:32:23;5.50;99.90
23471;DHT22;11908;50.806;4.424;2022-11-22T03:34:48;5.50;99.90
23471;DHT22;11908;50.806;4.424;2022-11-22T03:37:14;5.40;99.90
23471;DHT22;11908;50.806;4.424;2022-11-22T03:39:40;5.40;99.90
23471;DHT22;11908;50.806;4.424;2022-11-22T03:42:05;5.40;99.90
23471;DHT22;11908;50.806;4.424;2022-11-22T03:44:31;5.40;99.90
23471;DHT22;11908;50.806;4.424;2022-11-22T03:46:57;5.40;99.90
23471;DHT22;11908;50.806;4.424;2022-11-22T03:49:22;5.40;99.90
23471;DHT22;11908;50.806;4.424;2022-11-22T03:51:48;5.40;99.90
23471;DHT22;11908;50.806;4.424;2022-11-22T03:54:13;5.40;99.90
23471;DHT22;11908;50.806;4.424;2022-11-22T03:56:39;5.40;99.90
23471;DHT22;11908;50.806;4.424;2022-11-22T03:59:05;5.40;99.90
23471;DHT22;11908;50.806;4.424;2022-11-22T04:01:30;5.40;99.90
23471;DHT22;11908;50.806;4.424;2022-11-22T04:03:56;5.30;99.90
23471;DHT22;11908;50.806;4.424;2022-11-22T04:06:22;5.40;99.90
23471;DHT22;11908;50.806;4.424;2022-11-22T04:08:47;5.40;99.90
23471;DHT22;11908;50.806;4.424;2022-11-22T04:11:13;5.40;99.90
23471;DHT22;11908;50.806;4.424;2022-11-22T04:13:39;5.40;99.90
23471;DHT22;11908;50.806;4.424;2022-11-22T04:16:23;5.50;99.90
23471;DHT22;11908;50.806;4.424;2022-11-22T04:18:49;5.50;99.90
23471;DHT22;11908;50.806;4.424;2022-11-22T04:21:14;5.50;99.90
23471;DHT22;11908;50.806;4.424;2022-11-22T04:23:59;5.50;99.90
23471;DHT22;11908;50.806;4.424;2022-11-22T04:26:43;5.50;99.90
23471;DHT22;11908;50.806;4.424;2022-11-22T04:29:09;5.50;99.90
23471;DHT22;11908;50.806;4.424;2022-11-22T04:31:35;5.40;99.90
23471;DHT22;11908;50.806;4.424;2022-11-22T04:34:19;5.50;99.90
23471;DHT22;11908;50.806;4.424;2022-11-22T04:36:45;5.40;99.90
23471;DHT22;11908;50.806;4.424;2022-11-22T04:39:10;5.40;99.90
23471;DHT22;11908;50.806;4.424;2022-11-22T04:41:36;5.40;99.90
23471;DHT22;11908;50.806;4.424;2022-11-22T04:44:01;5.50;99.90
23471;DHT22;11908;50.806;4.424;2022-11-22T04:46:46;5.50;99.90
23471;DHT22;11908;50.806;4.424;2022-11-22T04:49:11;5.50;99.90
23471;DHT22;11908;50.806;4.424;2022-11-22T04:51:37;5.60;99.90
23471;DHT22;11908;50.806;4.424;2022-11-22T04:54:21;5.50;99.90
23471;DHT22;11908;50.806;4.424;2022-11-22T04:56:46;5.50;99.90
23471;DHT22;11908;50.806;4.424;2022-11-22T04:59:12;5.50;99.90
23471;DHT22;11908;50.806;4.424;2022-11-22T05:01:38;5.50;99.90
23471;DHT22;11908;50.806;4.424;2022-11-22T05:04:04;5.50;99.90
23471;DHT22;11908;50.806;4.424;2022-11-22T05:06:29;5.50;99.90
23471;DHT22;11908;50.806;4.424;2022-11-22T05:08:55;5.60;99.90
23471;DHT22;11908;50.806;4.424;2022-11-22T05:11:21;5.60;99.90
23471;DHT22;11908;50.806;4.424;2022-11-22T05:13:47;5.60;99.90
23471;DHT22;11908;50.806;4.424;2022-11-22T05:16:14;5.60;99.90
23471;DHT22;11908;50.806;4.424;2022-11-22T05:18:40;5.60;99.90
23471;DHT22;11908;50.806;4.424;2022-11-22T05:21:11;5.60;99.90
23471;DHT22;11908;50.806;4.424;2022-11-22T05:23:37;5.50;99.90
23471;DHT22;11908;50.806;4.424;2022-11-22T05:26:26;5.50;99.90
23471;DHT22;11908;50.806;4.424;2022-11-22T05:28:51;5.60;99.90
23471;DHT22;11908;50.806;4.424;2022-11-22T05:31:20;5.50;99.90
23471;DHT22;11908;50.806;4.424;2022-11-22T05:33:51;5.60;99.90
23471;DHT22;11908;50.806;4.424;2022-11-22T05:36:21;5.60;99.90
23471;DHT22;11908;50.806;4.424;2022-11-22T05:38:47;5.60;99.90
23471;DHT22;11908;50.806;4.424;2022-11-22T05:41:14;5.60;99.90
23471;DHT22;11908;50.806;4.424;2022-11-22T05:43:41;5.70;99.90
23471;DHT22;11908;50.806;4.424;2022-11-22T05:46:12;5.60;99.90
23471;DHT22;11908;50.806;4.424;2022-11-22T05:48:40;5.70;99.90
23471;DHT22;11908;50.806;4.424;2022-11-22T05:51:08;5.70;99.90
23471;DHT22;11908;50.806;4.424;2022-11-22T05:53:38;5.80;99.90
23471;DHT22;11908;50.806;4.424;2022-11-22T05:56:05;5.80;99.90
23471;DHT22;11908;50.806;4.424;2022-11-22T05:58:32;5.90;99.90
23471;DHT22;11908;50.806;4.424;2022-11-22T06:01:11;6.00;99.90
23471;DHT22;11908;50.806;4.424;2022-11-22T06:03:37;6.00;99.90
23471;DHT22;11908;50.806;4.424;2022-11-22T06:06:05;6.00;99.90
23471;DHT22;11908;50.806;4.424;2022-11-22T06:08:32;6.00;99.90
23471;DHT22;11908;50.806;4.424;2022-11-22T06:11:05;6.00;99.90
23471;DHT22;11908;50.806;4.424;2022-11-22T06:13:39;6.00;99.90
23471;DHT22;11908;50.806;4.424;2022-11-22T06:16:06;6.00;99.90
23471;DHT22;11908;50.806;4.424;2022-11-22T06:18:32;6.00;99.90
23471;DHT22;11908;50.806;4.424;2022-11-22T06:21:06;6.00;99.90
23471;DHT22;11908;50.806;4.424;2022-11-22T06:23:32;6.10;99.90
23471;DHT22;11908;50.806;4.424;2022-11-22T06:26:04;6.10;99.90
23471;DHT22;11908;50.806;4.424;2022-11-22T06:28:31;6.20;99.90
23471;DHT22;11908;50.806;4.424;2022-11-22T06:31:05;6.20;99.90
23471;DHT22;11908;50.806;4.424;2022-11-22T06:33:31;6.30;99.90
23471;DHT22;11908;50.806;4.424;2022-11-22T06:36:05;6.20;99.90
23471;DHT22;11908;50.806;4.424;2022-11-22T06:38:32;6.10;99.90
23471;DHT22;11908;50.806;4.424;2022-11-22T06:41:02;6.20;99.90
23471;DHT22;11908;50.806;4.424;2022-11-22T06:43:29;6.20;99.90
23471;DHT22;11908;50.806;4.424;2022-11-22T06:45:59;6.20;99.90
23471;DHT22;11908;50.806;4.424;2022-11-22T06:48:27;6.30;99.90
23471;DHT22;11908;50.806;4.424;2022-11-22T06:50:58;6.30;99.90
23471;DHT22;11908;50.806;4.424;2022-11-22T06:53:29;6.40;99.90
23471;DHT22;11908;50.806;4.424;2022-11-22T06:56:06;6.30;99.90
23471;DHT22;11908;50.806;4.424;2022-11-22T06:58:32;6.30;99.90
23471;DHT22;11908;50.806;4.424;2022-11-22T07:01:06;6.40;99.90
23471;DHT22;11908;50.806;4.424;2022-11-22T07:03:39;6.40;99.90
23471;DHT22;11908;50.806;4.424;2022-11-22T07:06:07;6.50;99.90
23471;DHT22;11908;50.806;4.424;2022-11-22T07:08:33;6.40;99.90
23471;DHT22;11908;50.806;4.424;2022-11-22T07:13:28;6.30;99.90
23471;DHT22;11908;50.806;4.424;2022-11-22T07:15:55;6.30;99.90
23471;DHT22;11908;50.806;4.424;2022-11-22T07:18:21;6.30;99.90
23471;DHT22;11908;50.806;4.424;2022-11-22T07:20:47;6.40;99.90
23471;DHT22;11908;50.806;4.424;2022-11-22T07:23:13;6.30;99.90
23471;DHT22;11908;50.806;4.424;2022-11-22T07:25:43;6.40;99.90
23471;DHT22;11908;50.806;4.424;2022-11-22T07:28:09;6.50;99.90
23471;DHT22;11908;50.806;4.424;2022-11-22T07:30:35;6.50;99.90
23471;DHT22;11908;50.806;4.424;2022-11-22T07:33:00;6.40;99.90
23471;DHT22;11908;50.806;4.424;2022-11-22T07:35:26;6.50;99.90
23471;DHT22;11908;50.806;4.424;2022-11-22T07:37:52;6.50;99.90
23471;DHT22;11908;50.806;4.424;2022-11-22T07:40:18;6.50;99.90
23471;DHT22;11908;50.806;4.424;2022-11-22T07:42:44;6.60;99.90
23471;DHT22;11908;50.806;4.424;2022-11-22T07:45:09;6.60;99.90
23471;DHT22;11908;50.806;4.424;2022-11-22T07:47:35;6.60;99.90
23471;DHT22;11908;50.806;4.424;2022-11-22T07:50:01;6.60;99.90
23471;DHT22;11908;50.806;4.424;2022-11-22T07:52:26;6.60;99.90
23471;DHT22;11908;50.806;4.424;2022-11-22T07:54:52;6.60;99.90
23471;DHT22;11908;50.806;4.424;2022-11-22T07:57:17;6.60;99.90
23471;DHT22;11908;50.806;4.424;2022-11-22T07:59:43;6.80;99.90
23471;DHT22;11908;50.806;4.424;2022-11-22T08:02:12;6.90;99.90
23471;DHT22;11908;50.806;4.424;2022-11-22T08:04:38;6.90;99.90
23471;DHT22;11908;50.806;4.424;2022-11-22T08:07:03;7.00;99.90
23471;DHT22;11908;50.806;4.424;2022-11-22T08:09:29;7.00;99.90
23471;DHT22;11908;50.806;4.424;2022-11-22T08:11:55;6.90;99.90
23471;DHT22;11908;50.806;4.424;2022-11-22T08:14:21;6.80;99.90
23471;DHT22;11908;50.806;4.424;2022-11-22T08:16:47;6.80;99.90
23471;DHT22;11908;50.806;4.424;2022-11-22T08:19:12;6.90;99.90
23471;DHT22;11908;50.806;4.424;2022-11-22T08:21:42;7.00;99.90
23471;DHT22;11908;50.806;4.424;2022-11-22T08:24:08;7.10;99.90
23471;DHT22;11908;50.806;4.424;2022-11-22T08:26:34;7.20;99.90
23471;DHT22;11908;50.806;4.424;2022-11-22T08:29:03;7.10;99.90
23471;DHT22;11908;50.806;4.424;2022-11-22T08:31:29;7.20;99.90
23471;DHT22;11908;50.806;4.424;2022-11-22T08:33:55;7.20;99.90
23471;DHT22;11908;50.806;4.424;2022-11-22T08:36:21;7.20;99.90
23471;DHT22;11908;50.806;4.424;2022-11-22T08:38:46;7.30;99.90
23471;DHT22;11908;50.806;4.424;2022-11-22T08:41:12;7.20;99.90
23471;DHT22;11908;50.806;4.424;2022-11-22T08:43:38;7.30;99.90
23471;DHT22;11908;50.806;4.424;2022-11-22T08:46:04;7.20;99.90
23471;DHT22;11908;50.806;4.424;2022-11-22T08:48:32;7.30;99.90
23471;DHT22;11908;50.806;4.424;2022-11-22T08:51:00;7.40;99.90
23471;DHT22;11908;50.806;4.424;2022-11-22T08:53:26;7.30;99.90
23471;DHT22;11908;50.806;4.424;2022-11-22T08:55:53;7.40;99.90
23471;DHT22;11908;50.806;4.424;2022-11-22T08:58:19;7.30;99.90
23471;DHT22;11908;50.806;4.424;2022-11-22T09:00:44;7.30;99.90
23471;DHT22;11908;50.806;4.424;2022-11-22T09:03:10;7.30;99.90
23471;DHT22;11908;50.806;4.424;2022-11-22T09:05:36;7.40;99.90
23471;DHT22;11908;50.806;4.424;2022-11-22T09:08:01;7.40;99.90
23471;DHT22;11908;50.806;4.424;2022-11-22T09:10:27;7.50;99.90
23471;DHT22;11908;50.806;4.424;2022-11-22T09:12:53;7.40;99.90
23471;DHT22;11908;50.806;4.424;2022-11-22T09:15:19;7.40;99.90
23471;DHT22;11908;50.806;4.424;2022-11-22T09:17:45;7.40;99.90
23471;DHT22;11908;50.806;4.424;2022-11-22T09:20:11;7.30;99.90
23471;DHT22;11908;50.806;4.424;2022-11-22T09:22:37;7.30;99.90
23471;DHT22;11908;50.806;4.424;2022-11-22T09:25:04;7.30;99.90
23471;DHT22;11908;50.806;4.424;2022-11-22T09:27:33;7.30;99.90
23471;DHT22;11908;50.806;4.424;2022-11-22T09:29:59;7.30;99.90
23471;DHT22;11908;50.806;4.424;2022-11-22T09:32:24;7.30;99.90
23471;DHT22;11908;50.806;4.424;2022-11-22T09:34:50;7.40;99.90
23471;DHT22;11908;50.806;4.424;2022-11-22T09:37:16;7.30;99.90
23471;DHT22;11908;50.806;4.424;2022-11-22T09:39:44;7.40;99.90
23471;DHT22;11908;50.806;4.424;2022-11-22T09:55:56;7.50;99.90
23471;DHT22;11908;50.806;4.424;2022-11-22T09:58:25;7.40;99.90
23471;DHT22;11908;50.806;4.424;2022-11-22T10:00:55;7.50;99.90
23471;DHT22;11908;50.806;4.424;2022-11-22T10:05:50;7.70;99.90
23471;DHT22;11908;50.806;4.424;2022-11-22T10:10:55;7.80;99.90
23471;DHT22;11908;50.806;4.424;2022-11-22T10:13:32;7.80;99.90
23471;DHT22;11908;50.806;4.424;2022-11-22T10:16:16;7.90;99.90
23471;DHT22;11908;50.806;4.424;2022-11-22T10:18:55;8.00;99.90
23471;DHT22;11908;50.806;4.424;2022-11-22T10:21:21;8.00;99.90
23471;DHT22;11908;50.806;4.424;2022-11-22T10:23:47;8.10;99.90
23471;DHT22;11908;50.806;4.424;2022-11-22T10:26:28;8.30;99.90
23471;DHT22;11908;50.806;4.424;2022-11-22T10:37:13;8.50;99.90
23471;DHT22;11908;50.806;4.424;2022-11-22T10:45:32;8.70;99.90
23471;DHT22;11908;50.806;4.424;2022-11-22T10:48:04;8.70;99.90
23471;DHT22;11908;50.806;4.424;2022-11-22T10:53:22;8.90;99.90
23471;DHT22;11908;50.806;4.424;2022-11-22T10:55:59;8.80;99.90
23471;DHT22;11908;50.806;4.424;2022-11-22T11:03:46;9.00;99.90
23471;DHT22;11908;50.806;4.424;2022-11-22T11:06:41;8.90;99.90
23471;DHT22;11908;50.806;4.424;2022-11-22T11:09:21;8.90;99.90
23471;DHT22;11908;50.806;4.424;2022-11-22T11:11:50;9.00;99.90
23471;DHT22;11908;50.806;4.424;2022-11-22T11:14:24;8.90;99.90
23471;DHT22;11908;50.806;4.424;2022-11-22T11:16:51;8.70;99.90
23471;DHT22;11908;50.806;4.424;2022-11-22T11:19:23;8.60;99.90
23471;DHT22;11908;50.806;4.424;2022-11-22T11:21:59;8.50;99.90
23471;DHT22;11908;50.806;4.424;2022-11-22T11:24:27;8.50;99.90
23471;DHT22;11908;50.806;4.424;2022-11-22T11:26:55;8.50;99.90
23471;DHT22;11908;50.806;4.424;2022-11-22T11:32:29;8.20;99.90
23471;DHT22;11908;50.806;4.424;2022-11-22T11:35:14;8.20;99.90
23471;DHT22;11908;50.806;4.424;2022-11-22T11:37:40;8.20;99.90
23471;DHT22;11908;50.806;4.424;2022-11-22T11:40:38;8.30;99.90
23471;DHT22;11908;50.806;4.424;2022-11-22T11:43:20;8.40;99.90
23471;DHT22;11908;50.806;4.424;2022-11-22T11:45:46;8.40;99.90
23471;DHT22;11908;50.806;4.424;2022-11-22T11:48:35;8.50;99.90
23471;DHT22;11908;50.806;4.424;2022-11-22T11:51:17;8.60;99.90
23471;DHT22;11908;50.806;4.424;2022-11-22T11:53:52;8.60;99.90
23471;DHT22;11908;50.806;4.424;2022-11-22T11:56:19;8.70;99.90
23471;DHT22;11908;50.806;4.424;2022-11-22T11:58:54;8.70;99.90
23471;DHT22;11908;50.806;4.424;2022-11-22T12:01:20;8.80;99.90
23471;DHT22;11908;50.806;4.424;2022-11-22T12:03:59;8.80;99.90
23471;DHT22;11908;50.806;4.424;2022-11-22T12:06:30;8.90;99.90
23471;DHT22;11908;50.806;4.424;2022-11-22T12:08:58;9.00;99.90
23471;DHT22;11908;50.806;4.424;2022-11-22T12:11:41;8.90;99.90
23471;DHT22;11908;50.806;4.424;2022-11-22T12:14:11;9.00;99.90
23471;DHT22;11908;50.806;4.424;2022-11-22T12:16:45;9.10;99.90
23471;DHT22;11908;50.806;4.424;2022-11-22T12:20:10;9.00;99.90
23471;DHT22;11908;50.806;4.424;2022-11-22T12:22:24;9.00;99.90
23471;DHT22;11908;50.806;4.424;2022-11-22T12:28:17;9.00;99.90
23471;DHT22;11908;50.806;4.424;2022-11-22T12:30:50;9.10;99.90
23471;DHT22;11908;50.806;4.424;2022-11-22T12:33:26;9.30;99.90
23471;DHT22;11908;50.806;4.424;2022-11-22T12:35:54;9.20;99.90
23471;DHT22;11908;50.806;4.424;2022-11-22T12:38:35;9.20;99.90
23471;DHT22;11908;50.806;4.424;2022-11-22T12:41:06;9.20;99.90
23471;DHT22;11908;50.806;4.424;2022-11-22T12:43:50;9.20;99.90
23471;DHT22;11908;50.806;4.424;2022-11-22T12:46:22;9.10;99.90
23471;DHT22;11908;50.806;4.424;2022-11-22T12:48:54;9.10;99.90
23471;DHT22;11908;50.806;4.424;2022-11-22T12:51:46;9.00;99.90
23471;DHT22;11908;50.806;4.424;2022-11-22T12:54:17;8.90;99.90
23471;DHT22;11908;50.806;4.424;2022-11-22T12:56:56;8.90;99.90
23471;DHT22;11908;50.806;4.424;2022-11-22T12:59:33;8.90;99.90
23471;DHT22;11908;50.806;4.424;2022-11-22T13:04:53;8.80;99.90
23471;DHT22;11908;50.806;4.424;2022-11-22T13:07:36;8.80;99.90
23471;DHT22;11908;50.806;4.424;2022-11-22T13:12:44;8.70;99.90
23471;DHT22;11908;50.806;4.424;2022-11-22T13:15:24;8.70;99.90
23471;DHT22;11908;50.806;4.424;2022-11-22T13:17:51;8.70;99.90
23471;DHT22;11908;50.806;4.424;2022-11-22T13:20:20;8.60;99.90
23471;DHT22;11908;50.806;4.424;2022-11-22T13:26:09;8.70;99.90
23471;DHT22;11908;50.806;4.424;2022-11-22T13:28:41;8.70;99.90
23471;DHT22;11908;50.806;4.424;2022-11-22T13:33:39;9.10;99.90
23471;DHT22;11908;50.806;4.424;2022-11-22T13:36:23;9.30;99.90
23471;DHT22;11908;50.806;4.424;2022-11-22T13:38:51;9.30;99.90
23471;DHT22;11908;50.806;4.424;2022-11-22T13:41:40;9.40;99.90
23471;DHT22;11908;50.806;4.424;2022-11-22T13:49:42;9.20;99.90
23471;DHT22;11908;50.806;4.424;2022-11-22T13:52:48;9.20;99.90
23471;DHT22;11908;50.806;4.424;2022-11-22T13:55:28;9.20;99.90
23471;DHT22;11908;50.806;4.424;2022-11-22T13:57:54;9.30;99.90
23471;DHT22;11908;50.806;4.424;2022-11-22T14:00:41;9.30;99.90
23471;DHT22;11908;50.806;4.424;2022-11-22T14:05:54;9.40;99.90
23471;DHT22;11908;50.806;4.424;2022-11-22T14:08:39;9.40;99.90
23471;DHT22;11908;50.806;4.424;2022-11-22T14:11:28;9.50;99.90
23471;DHT22;11908;50.806;4.424;2022-11-22T14:14:23;9.50;99.90
23471;DHT22;11908;50.806;4.424;2022-11-22T14:29:05;9.30;99.90
23471;DHT22;11908;50.806;4.424;2022-11-22T14:31:22;9.30;99.90
23471;DHT22;11908;50.806;4.424;2022-11-22T14:34:15;9.30;99.90
23471;DHT22;11908;50.806;4.424;2022-11-22T14:36:41;9.40;99.90
23471;DHT22;11908;50.806;4.424;2022-11-22T14:42:56;9.30;99.90
23471;DHT22;11908;50.806;4.424;2022-11-22T14:44:58;9.40;99.90
23471;DHT22;11908;50.806;4.424;2022-11-22T14:47:23;9.40;99.90
23471;DHT22;11908;50.806;4.424;2022-11-22T14:49:50;9.40;99.90
23471;DHT22;11908;50.806;4.424;2022-11-22T14:52:25;9.40;99.90
23471;DHT22;11908;50.806;4.424;2022-11-22T14:55:00;9.40;99.90
23471;DHT22;11908;50.806;4.424;2022-11-22T14:57:28;9.40;99.90
23471;DHT22;11908;50.806;4.424;2022-11-22T15:00:20;9.30;99.90
23471;DHT22;11908;50.806;4.424;2022-11-22T15:17:06;9.20;99.90
23471;DHT22;11908;50.806;4.424;2022-11-22T15:19:36;9.10;99.90
23471;DHT22;11908;50.806;4.424;2022-11-22T15:22:13;9.00;99.90
23471;DHT22;11908;50.806;4.424;2022-11-22T15:24:54;9.00;99.90
23471;DHT22;11908;50.806;4.424;2022-11-22T15:30:13;9.00;99.90
23471;DHT22;11908;50.806;4.424;2022-11-22T15:32:43;8.90;99.90
23471;DHT22;11908;50.806;4.424;2022-11-22T15:35:14;8.80;99.90
23471;DHT22;11908;50.806;4.424;2022-11-22T15:38:02;8.80;99.90
23471;DHT22;11908;50.806;4.424;2022-11-22T15:40:33;8.90;99.90
23471;DHT22;11908;50.806;4.424;2022-11-22T15:43:02;8.80;99.90
23471;DHT22;11908;50.806;4.424;2022-11-22T15:45:29;8.80;99.90
23471;DHT22;11908;50.806;4.424;2022-11-22T15:47:58;8.70;99.90
23471;DHT22;11908;50.806;4.424;2022-11-22T15:50:24;8.70;99.90
23471;DHT22;11908;50.806;4.424;2022-11-22T15:53:04;8.70;99.90
23471;DHT22;11908;50.806;4.424;2022-11-22T15:55:31;8.60;99.90
23471;DHT22;11908;50.806;4.424;2022-11-22T15:57:56;8.60;99.90
23471;DHT22;11908;50.806;4.424;2022-11-22T16:00:25;8.60;99.90
23471;DHT22;11908;50.806;4.424;2022-11-22T16:02:57;8.70;99.90
23471;DHT22;11908;50.806;4.424;2022-11-22T16:05:34;8.80;99.90
23471;DHT22;11908;50.806;4.424;2022-11-22T16:08:01;8.80;99.90
23471;DHT22;11908;50.806;4.424;2022-11-22T16:13:12;8.90;99.90
23471;DHT22;11908;50.806;4.424;2022-11-22T16:15:38;8.80;99.90
23471;DHT22;11908;50.806;4.424;2022-11-22T16:18:14;8.90;99.90
23471;DHT22;11908;50.806;4.424;2022-11-22T16:23:28;9.10;99.90
23471;DHT22;11908;50.806;4.424;2022-11-22T16:25:57;9.10;99.90
23471;DHT22;11908;50.806;4.424;2022-11-22T16:28:31;9.10;99.90
23471;DHT22;11908;50.806;4.424;2022-11-22T16:30:59;9.10;99.90
23471;DHT22;11908;50.806;4.424;2022-11-22T16:33:25;9.10;99.90
23471;DHT22;11908;50.806;4.424;2022-11-22T16:35:58;9.10;99.90
23471;DHT22;11908;50.806;4.424;2022-11-22T16:38:26;9.20;99.90
23471;DHT22;11908;50.806;4.424;2022-11-22T16:40:54;9.20;99.90
23471;DHT22;11908;50.806;4.424;2022-11-22T16:43:22;9.20;99.90
23471;DHT22;11908;50.806;4.424;2022-11-22T16:45:48;9.20;99.90
23471;DHT22;11908;50.806;4.424;2022-11-22T16:48:24;9.20;99.90
23471;DHT22;11908;50.806;4.424;2022-11-22T16:50:57;9.20;99.90
23471;DHT22;11908;50.806;4.424;2022-11-22T16:53:25;9.10;99.90
23471;DHT22;11908;50.806;4.424;2022-11-22T16:55:51;9.10;99.90
23471;DHT22;11908;50.806;4.424;2022-11-22T16:58:22;9.10;99.90
23471;DHT22;11908;50.806;4.424;2022-11-22T17:00:48;9.20;99.90
23471;DHT22;11908;50.806;4.424;2022-11-22T17:03:18;9.30;99.90
23471;DHT22;11908;50.806;4.424;2022-11-22T17:05:45;9.40;99.90
23471;DHT22;11908;50.806;4.424;2022-11-22T17:08:14;9.30;99.90
23471;DHT22;11908;50.806;4.424;2022-11-22T17:10:43;9.20;99.90
23471;DHT22;11908;50.806;4.424;2022-11-22T17:13:23;9.30;99.90
23471;DHT22;11908;50.806;4.424;2022-11-22T17:15:54;9.30;99.90
23471;DHT22;11908;50.806;4.424;2022-11-22T17:18:20;9.40;99.90
23471;DHT22;11908;50.806;4.424;2022-11-22T17:20:47;9.40;99.90
23471;DHT22;11908;50.806;4.424;2022-11-22T17:23:31;9.50;99.90
23471;DHT22;11908;50.806;4.424;2022-11-22T17:25:58;9.50;99.90
23471;DHT22;11908;50.806;4.424;2022-11-22T17:28:24;9.60;99.90
23471;DHT22;11908;50.806;4.424;2022-11-22T17:30:50;9.60;99.90
23471;DHT22;11908;50.806;4.424;2022-11-22T17:33:15;9.60;99.90
23471;DHT22;11908;50.806;4.424;2022-11-22T17:35:41;9.60;99.90
23471;DHT22;11908;50.806;4.424;2022-11-22T17:38:09;9.60;99.90
23471;DHT22;11908;50.806;4.424;2022-11-22T17:40:36;9.60;99.90
23471;DHT22;11908;50.806;4.424;2022-11-22T17:43:02;9.70;99.90
23471;DHT22;11908;50.806;4.424;2022-11-22T17:45:28;9.70;99.90
23471;DHT22;11908;50.806;4.424;2022-11-22T17:47:53;9.70;99.90
23471;DHT22;11908;50.806;4.424;2022-11-22T17:50:19;9.70;99.90
23471;DHT22;11908;50.806;4.424;2022-11-22T17:52:45;9.60;99.90